sensor_id;sensor_type;location;lat;lon;timestamp;pressure;altitude;pressure_sealevel;temperature;humidity
56052;BME280;41919;42.648;23.384;2023-02-20T00:01:37;94862.16;;;10.73;53.43
56052;BME280;41919;42.648;23.384;2023-02-20T00:04:02;94799.72;;;10.36;53.81
56052;BME280;41919;42.648;23.384;2023-02-20T00:06:28;94797.03;;;10.23;53.67
56052;BME280;41919;42.648;23.384;2023-02-20T00:08:53;94861.53;;;10.71;53.77
56052;BME280;41919;42.648;23.384;2023-02-20T00:11:19;94854.69;;;10.70;53.98
56052;BME280;41919;42.648;23.384;2023-02-20T00:13:46;94801.94;;;10.39;54.15
56052;BME280;41919;42.648;23.384;2023-02-20T00:16:12;94797.63;;;10.18;54.78
56052;BME280;41919;42.648;23.384;2023-02-20T00:18:37;94814.97;;;10.33;54.82
56052;BME280;41919;42.648;23.384;2023-02-20T00:21:04;94877.00;;;10.66;54.98
56052;BME280;41919;42.648;23.384;2023-02-20T00:23:34;94870.53;;;10.62;55.28
56052;BME280;41919;42.648;23.384;2023-02-20T00:25:59;94873.75;;;10.57;55.35
56052;BME280;41919;42.648;23.384;2023-02-20T00:28:25;94862.84;;;10.47;55.46
56052;BME280;41919;42.648;23.384;2023-02-20T00:30:50;94867.28;;;10.46;55.69
56052;BME280;41919;42.648;23.384;2023-02-20T00:33:16;94877.72;;;10.46;56.00
56052;BME280;41919;42.648;23.384;2023-02-20T00:35:41;94876.34;;;10.50;55.80
56052;BME280;41919;42.648;23.384;2023-02-20T00:38:07;94850.75;;;10.39;56.30
56052;BME280;41919;42.648;23.384;2023-02-20T00:40:32;94809.59;;;10.06;56.45
56052;BME280;41919;42.648;23.384;2023-02-20T00:42:57;94848.94;;;10.33;56.83
56052;BME280;41919;42.648;23.384;2023-02-20T00:45:23;94845.72;;;10.31;57.29
56052;BME280;41919;42.648;23.384;2023-02-20T00:47:48;94799.38;;;10.11;57.24
56052;BME280;41919;42.648;23.384;2023-02-20T00:50:15;94783.66;;;9.98;57.54
56052;BME280;41919;42.648;23.384;2023-02-20T00:52:41;94861.00;;;10.34;57.49
56052;BME280;41919;42.648;23.384;2023-02-20T00:55:07;94788.88;;;9.98;57.45
56052;BME280;41919;42.648;23.384;2023-02-20T00:57:32;94867.97;;;10.27;57.64
56052;BME280;41919;42.648;23.384;2023-02-20T00:59:58;94814.75;;;9.93;57.66
56052;BME280;41919;42.648;23.384;2023-02-20T01:02:23;94795.81;;;9.77;57.96
56052;BME280;41919;42.648;23.384;2023-02-20T01:04:49;94866.75;;;10.23;57.59
56052;BME280;41919;42.648;23.384;2023-02-20T01:07:15;94871.72;;;10.17;58.34
56052;BME280;41919;42.648;23.384;2023-02-20T01:09:40;94815.00;;;9.63;58.35
56052;BME280;41919;42.648;23.384;2023-02-20T01:12:06;94849.00;;;9.76;59.05
56052;BME280;41919;42.648;23.384;2023-02-20T01:14:32;94907.22;;;10.05;58.65
56052;BME280;41919;42.648;23.384;2023-02-20T01:16:57;94904.00;;;10.03;59.38
56052;BME280;41919;42.648;23.384;2023-02-20T01:19:23;94913.69;;;10.09;58.91
56052;BME280;41919;42.648;23.384;2023-02-20T01:21:49;94919.88;;;10.08;58.97
56052;BME280;41919;42.648;23.384;2023-02-20T01:24:16;94912.22;;;10.00;59.41
56052;BME280;41919;42.648;23.384;2023-02-20T01:26:46;94867.19;;;9.63;59.62
56052;BME280;41919;42.648;23.384;2023-02-20T01:29:12;94934.63;;;9.88;60.14
56052;BME280;41919;42.648;23.384;2023-02-20T01:31:37;94851.19;;;9.45;60.03
56052;BME280;41919;42.648;23.384;2023-02-20T01:34:04;94866.31;;;9.56;60.02
56052;BME280;41919;42.648;23.384;2023-02-20T01:36:29;94902.03;;;9.84;59.88
56052;BME280;41919;42.648;23.384;2023-02-20T01:38:55;94904.28;;;9.87;60.14
56052;BME280;41919;42.648;23.384;2023-02-20T01:41:21;94925.09;;;10.01;59.83
56052;BME280;41919;42.648;23.384;2023-02-20T01:43:47;94913.94;;;9.86;60.27
56052;BME280;41919;42.648;23.384;2023-02-20T01:51:26;94869.91;;;9.55;60.73
56052;BME280;41919;42.648;23.384;2023-02-20T01:53:54;94934.09;;;9.99;61.03
56052;BME280;41919;42.648;23.384;2023-02-20T01:56:19;94918.66;;;10.04;61.38
56052;BME280;41919;42.648;23.384;2023-02-20T01:58:47;94917.81;;;9.97;61.50
56052;BME280;41919;42.648;23.384;2023-02-20T02:01:14;94854.03;;;9.50;61.78
56052;BME280;41919;42.648;23.384;2023-02-20T02:03:42;94934.47;;;9.96;61.97
56052;BME280;41919;42.648;23.384;2023-02-20T02:06:11;94933.06;;;9.93;62.52
56052;BME280;41919;42.648;23.384;2023-02-20T02:08:38;94945.16;;;10.01;62.32
56052;BME280;41919;42.648;23.384;2023-02-20T02:11:18;94888.06;;;9.63;62.25
56052;BME280;41919;42.648;23.384;2023-02-20T02:13:44;94929.59;;;9.86;62.41
56052;BME280;41919;42.648;23.384;2023-02-20T02:19:33;94941.50;;;9.67;63.09
56052;BME280;41919;42.648;23.384;2023-02-20T02:22:28;94940.94;;;9.50;63.29
56052;BME280;41919;42.648;23.384;2023-02-20T02:25:15;94855.63;;;9.01;62.94
56052;BME280;41919;42.648;23.384;2023-02-20T02:33:57;94964.16;;;9.45;61.27
56052;BME280;41919;42.648;23.384;2023-02-20T02:37:05;94960.88;;;9.36;61.50
56052;BME280;41919;42.648;23.384;2023-02-20T02:39:51;94967.16;;;9.42;61.46
56052;BME280;41919;42.648;23.384;2023-02-20T02:42:33;94962.88;;;9.34;61.28
56052;BME280;41919;42.648;23.384;2023-02-20T02:50:26;94939.47;;;8.83;62.59
56052;BME280;41919;42.648;23.384;2023-02-20T02:52:56;94896.91;;;8.61;62.38
56052;BME280;41919;42.648;23.384;2023-02-20T02:55:25;94971.69;;;8.97;62.82
56052;BME280;41919;42.648;23.384;2023-02-20T02:57:50;94968.00;;;8.91;62.82
56052;BME280;41919;42.648;23.384;2023-02-20T03:05:17;94929.88;;;8.39;62.34
56052;BME280;41919;42.648;23.384;2023-02-20T03:07:47;95001.66;;;8.86;62.78
56052;BME280;41919;42.648;23.384;2023-02-20T03:10:16;94939.84;;;8.35;63.15
56052;BME280;41919;42.648;23.384;2023-02-20T03:12:47;95000.19;;;8.83;62.81
56052;BME280;41919;42.648;23.384;2023-02-20T03:15:21;95001.91;;;8.91;62.89
56052;BME280;41919;42.648;23.384;2023-02-20T03:20:36;94990.13;;;8.95;62.56
56052;BME280;41919;42.648;23.384;2023-02-20T03:23:05;94924.78;;;8.46;62.60
56052;BME280;41919;42.648;23.384;2023-02-20T03:25:36;94903.84;;;8.24;62.76
56052;BME280;41919;42.648;23.384;2023-02-20T03:31:04;94922.25;;;8.37;62.66
56052;BME280;41919;42.648;23.384;2023-02-20T03:33:35;95012.25;;;8.70;63.00
56052;BME280;41919;42.648;23.384;2023-02-20T03:36:33;95021.09;;;8.69;63.15
56052;BME280;41919;42.648;23.384;2023-02-20T03:39:30;95031.56;;;8.60;63.48
56052;BME280;41919;42.648;23.384;2023-02-20T03:42:16;95025.84;;;8.65;62.85
56052;BME280;41919;42.648;23.384;2023-02-20T03:45:03;94955.13;;;8.23;63.14
56052;BME280;41919;42.648;23.384;2023-02-20T03:47:30;95017.41;;;8.63;62.98
56052;BME280;41919;42.648;23.384;2023-02-20T03:49:58;95024.19;;;8.49;63.64
56052;BME280;41919;42.648;23.384;2023-02-20T03:52:26;95029.69;;;8.54;63.45
56052;BME280;41919;42.648;23.384;2023-02-20T03:54:52;94984.50;;;8.32;62.88
56052;BME280;41919;42.648;23.384;2023-02-20T03:57:25;95015.69;;;8.55;62.98
56052;BME280;41919;42.648;23.384;2023-02-20T03:59:57;95022.66;;;8.40;63.76
56052;BME280;41919;42.648;23.384;2023-02-20T04:02:33;95028.53;;;8.42;63.52
56052;BME280;41919;42.648;23.384;2023-02-20T04:05:05;94982.81;;;8.01;63.39
56052;BME280;41919;42.648;23.384;2023-02-20T04:07:37;94953.13;;;7.96;63.14
56052;BME280;41919;42.648;23.384;2023-02-20T04:10:06;95028.56;;;8.34;63.16
56052;BME280;41919;42.648;23.384;2023-02-20T04:12:38;95022.25;;;8.13;62.95
56052;BME280;41919;42.648;23.384;2023-02-20T04:15:07;94964.47;;;7.80;62.97
56052;BME280;41919;42.648;23.384;2023-02-20T04:17:42;95041.19;;;8.22;62.69
56052;BME280;41919;42.648;23.384;2023-02-20T04:20:10;95013.81;;;8.11;62.70
56052;BME280;41919;42.648;23.384;2023-02-20T04:22:38;95041.56;;;8.19;62.58
56052;BME280;41919;42.648;23.384;2023-02-20T04:25:29;94991.25;;;7.89;62.50
56052;BME280;41919;42.648;23.384;2023-02-20T04:28:00;95044.59;;;8.22;62.37
56052;BME280;41919;42.648;23.384;2023-02-20T04:30:26;94988.97;;;7.85;62.53
56052;BME280;41919;42.648;23.384;2023-02-20T04:32:52;94934.00;;;7.51;62.35
56052;BME280;41919;42.648;23.384;2023-02-20T04:35:18;95030.78;;;8.22;62.37
56052;BME280;41919;42.648;23.384;2023-02-20T04:37:45;95040.22;;;8.23;62.22
56052;BME280;41919;42.648;23.384;2023-02-20T04:40:11;94971.22;;;7.89;62.25
56052;BME280;41919;42.648;23.384;2023-02-20T04:42:37;95046.09;;;8.40;62.38
56052;BME280;41919;42.648;23.384;2023-02-20T04:45:03;94957.03;;;7.77;63.18
56052;BME280;41919;42.648;23.384;2023-02-20T04:47:29;95036.38;;;8.34;63.09
56052;BME280;41919;42.648;23.384;2023-02-20T04:49:54;95040.50;;;8.28;63.14
56052;BME280;41919;42.648;23.384;2023-02-20T04:52:20;95059.56;;;8.29;62.99
56052;BME280;41919;42.648;23.384;2023-02-20T04:54:46;95043.22;;;8.35;62.11
56052;BME280;41919;42.648;23.384;2023-02-20T04:57:11;95005.22;;;7.88;61.57
56052;BME280;41919;42.648;23.384;2023-02-20T04:59:37;95059.81;;;8.19;61.33
56052;BME280;41919;42.648;23.384;2023-02-20T05:02:02;94983.38;;;7.74;60.83
56052;BME280;41919;42.648;23.384;2023-02-20T05:04:28;94987.25;;;7.78;60.38
56052;BME280;41919;42.648;23.384;2023-02-20T05:06:54;95055.47;;;8.11;60.33
56052;BME280;41919;42.648;23.384;2023-02-20T05:09:20;95065.53;;;7.91;59.87
56052;BME280;41919;42.648;23.384;2023-02-20T05:11:46;95077.03;;;7.97;59.81
56052;BME280;41919;42.648;23.384;2023-02-20T05:14:12;95073.75;;;8.03;59.54
56052;BME280;41919;42.648;23.384;2023-02-20T05:16:39;95047.41;;;7.83;59.16
56052;BME280;41919;42.648;23.384;2023-02-20T05:19:05;95076.06;;;7.98;58.89
56052;BME280;41919;42.648;23.384;2023-02-20T05:21:31;95077.97;;;8.04;57.72
56052;BME280;41919;42.648;23.384;2023-02-20T05:24:15;95029.75;;;7.70;57.50
56052;BME280;41919;42.648;23.384;2023-02-20T05:26:41;95078.84;;;7.96;57.37
56052;BME280;41919;42.648;23.384;2023-02-20T05:29:07;95085.25;;;8.09;57.05
56052;BME280;41919;42.648;23.384;2023-02-20T05:31:34;95096.19;;;8.04;57.21
56052;BME280;41919;42.648;23.384;2023-02-20T05:34:00;95089.66;;;8.08;56.81
56052;BME280;41919;42.648;23.384;2023-02-20T05:36:25;95098.19;;;8.40;56.15
56052;BME280;41919;42.648;23.384;2023-02-20T05:38:51;95060.72;;;8.41;55.11
56052;BME280;41919;42.648;23.384;2023-02-20T05:41:17;95124.03;;;9.24;53.83
56052;BME280;41919;42.648;23.384;2023-02-20T05:43:44;95084.75;;;9.62;51.90
56052;BME280;41919;42.648;23.384;2023-02-20T05:46:10;95090.97;;;10.26;50.30
56052;BME280;41919;42.648;23.384;2023-02-20T05:48:35;95107.97;;;10.86;49.35
56052;BME280;41919;42.648;23.384;2023-02-20T05:51:01;95108.88;;;11.07;48.86
56052;BME280;41919;42.648;23.384;2023-02-20T05:53:27;95062.31;;;11.30;47.31
56052;BME280;41919;42.648;23.384;2023-02-20T05:55:53;95111.88;;;12.00;46.13
56052;BME280;41919;42.648;23.384;2023-02-20T05:58:19;95123.63;;;12.51;45.56
56052;BME280;41919;42.648;23.384;2023-02-20T06:00:44;95121.94;;;13.23;43.69
56052;BME280;41919;42.648;23.384;2023-02-20T06:03:10;95064.38;;;13.28;44.65
56052;BME280;41919;42.648;23.384;2023-02-20T06:05:36;95134.59;;;13.98;42.40
56052;BME280;41919;42.648;23.384;2023-02-20T06:08:01;95123.44;;;14.09;42.91
56052;BME280;41919;42.648;23.384;2023-02-20T06:10:27;95128.28;;;14.69;41.01
56052;BME280;41919;42.648;23.384;2023-02-20T06:12:52;95117.56;;;14.71;39.61
56052;BME280;41919;42.648;23.384;2023-02-20T06:15:18;95127.34;;;15.07;40.01
56052;BME280;41919;42.648;23.384;2023-02-20T06:17:43;95067.78;;;14.44;38.81
56052;BME280;41919;42.648;23.384;2023-02-20T06:20:09;95091.13;;;14.84;38.36
56052;BME280;41919;42.648;23.384;2023-02-20T06:22:34;95117.66;;;15.26;49.64
56052;BME280;41919;42.648;23.384;2023-02-20T06:24:59;95063.44;;;15.37;42.16
56052;BME280;41919;42.648;23.384;2023-02-20T06:27:25;95114.38;;;15.98;34.44
56052;BME280;41919;42.648;23.384;2023-02-20T06:29:50;95137.19;;;17.12;32.68
56052;BME280;41919;42.648;23.384;2023-02-20T06:32:16;95147.66;;;17.83;31.34
56052;BME280;41919;42.648;23.384;2023-02-20T06:34:43;95134.94;;;17.92;30.87
56052;BME280;41919;42.648;23.384;2023-02-20T06:37:09;95083.72;;;17.98;31.79
56052;BME280;41919;42.648;23.384;2023-02-20T06:39:35;95140.09;;;19.29;29.60
56052;BME280;41919;42.648;23.384;2023-02-20T06:42:01;95143.03;;;19.10;31.09
56052;BME280;41919;42.648;23.384;2023-02-20T06:44:27;95100.53;;;19.39;28.30
56052;BME280;41919;42.648;23.384;2023-02-20T06:46:52;95109.31;;;19.67;30.13
56052;BME280;41919;42.648;23.384;2023-02-20T06:49:18;95142.63;;;20.02;28.81
56052;BME280;41919;42.648;23.384;2023-02-20T06:51:43;95103.72;;;19.41;30.00
56052;BME280;41919;42.648;23.384;2023-02-20T06:54:12;95145.09;;;18.57;28.54
56052;BME280;41919;42.648;23.384;2023-02-20T06:56:38;95150.53;;;17.29;30.30
56052;BME280;41919;42.648;23.384;2023-02-20T06:59:05;95149.84;;;16.44;31.83
56052;BME280;41919;42.648;23.384;2023-02-20T07:01:37;95112.56;;;15.62;32.81
56052;BME280;41919;42.648;23.384;2023-02-20T07:04:04;95165.66;;;15.84;32.98
56052;BME280;41919;42.648;23.384;2023-02-20T07:06:30;95171.66;;;15.10;34.40
56052;BME280;41919;42.648;23.384;2023-02-20T07:08:55;95108.84;;;15.14;33.95
56052;BME280;41919;42.648;23.384;2023-02-20T07:11:22;95173.38;;;15.97;32.80
56052;BME280;41919;42.648;23.384;2023-02-20T07:13:48;95144.09;;;17.37;30.77
56052;BME280;41919;42.648;23.384;2023-02-20T07:16:14;95164.28;;;17.55;30.33
56052;BME280;41919;42.648;23.384;2023-02-20T07:18:40;95122.66;;;17.86;29.29
56052;BME280;41919;42.648;23.384;2023-02-20T07:21:05;95153.59;;;17.61;29.00
56052;BME280;41919;42.648;23.384;2023-02-20T07:23:31;95170.00;;;19.07;27.63
56052;BME280;41919;42.648;23.384;2023-02-20T07:25:56;95178.38;;;19.94;26.31
56052;BME280;41919;42.648;23.384;2023-02-20T07:28:22;95160.31;;;19.52;25.78
56052;BME280;41919;42.648;23.384;2023-02-20T07:30:47;95105.22;;;19.15;25.69
56052;BME280;41919;42.648;23.384;2023-02-20T07:33:14;95175.25;;;18.56;26.52
56052;BME280;41919;42.648;23.384;2023-02-20T07:35:40;95144.44;;;18.05;27.00
56052;BME280;41919;42.648;23.384;2023-02-20T07:38:05;95166.44;;;17.81;27.23
56052;BME280;41919;42.648;23.384;2023-02-20T07:40:31;95170.50;;;18.13;26.53
56052;BME280;41919;42.648;23.384;2023-02-20T07:42:56;95178.00;;;18.04;26.63
56052;BME280;41919;42.648;23.384;2023-02-20T07:45:22;95192.53;;;17.78;26.89
56052;BME280;41919;42.648;23.384;2023-02-20T07:47:48;95172.91;;;17.50;27.36
56052;BME280;41919;42.648;23.384;2023-02-20T07:50:14;95176.91;;;17.64;27.01
56052;BME280;41919;42.648;23.384;2023-02-20T07:52:40;95143.94;;;17.55;26.46
56052;BME280;41919;42.648;23.384;2023-02-20T07:55:06;95132.50;;;16.91;27.20
56052;BME280;41919;42.648;23.384;2023-02-20T07:57:33;95181.59;;;18.27;25.92
56052;BME280;41919;42.648;23.384;2023-02-20T07:59:59;95183.22;;;19.41;24.38
56052;BME280;41919;42.648;23.384;2023-02-20T08:02:24;95161.75;;;20.53;23.19
56052;BME280;41919;42.648;23.384;2023-02-20T08:04:49;95188.88;;;21.14;22.26
56052;BME280;41919;42.648;23.384;2023-02-20T08:07:15;95129.59;;;20.76;21.85
56052;BME280;41919;42.648;23.384;2023-02-20T08:09:40;95171.22;;;21.83;21.29
56052;BME280;41919;42.648;23.384;2023-02-20T08:12:06;95163.06;;;22.05;20.98
56052;BME280;41919;42.648;23.384;2023-02-20T08:14:31;95183.81;;;23.07;19.98
56052;BME280;41919;42.648;23.384;2023-02-20T08:16:57;95174.19;;;22.91;19.89
56052;BME280;41919;42.648;23.384;2023-02-20T08:19:22;95166.47;;;23.36;19.53
56052;BME280;41919;42.648;23.384;2023-02-20T08:21:47;95117.63;;;23.45;18.99
56052;BME280;41919;42.648;23.384;2023-02-20T08:24:13;95120.78;;;23.58;19.08
56052;BME280;41919;42.648;23.384;2023-02-20T08:26:43;95095.94;;;24.27;18.23
56052;BME280;41919;42.648;23.384;2023-02-20T08:29:09;95185.25;;;24.61;18.22
56052;BME280;41919;42.648;23.384;2023-02-20T08:31:34;95121.66;;;24.08;18.25
56052;BME280;41919;42.648;23.384;2023-02-20T08:33:59;95119.53;;;24.10;18.44
56052;BME280;41919;42.648;23.384;2023-02-20T08:36:25;95153.19;;;24.01;18.49
56052;BME280;41919;42.648;23.384;2023-02-20T08:38:50;95124.31;;;24.13;18.17
56052;BME280;41919;42.648;23.384;2023-02-20T08:41:16;95116.59;;;24.12;18.25
56052;BME280;41919;42.648;23.384;2023-02-20T08:43:42;95112.50;;;23.64;18.39
56052;BME280;41919;42.648;23.384;2023-02-20T08:46:08;95178.19;;;23.14;19.26
56052;BME280;41919;42.648;23.384;2023-02-20T08:48:34;95137.66;;;22.50;20.00
56052;BME280;41919;42.648;23.384;2023-02-20T08:51:00;95108.63;;;23.10;19.23
56052;BME280;41919;42.648;23.384;2023-02-20T08:53:26;95177.38;;;23.44;19.62
56052;BME280;41919;42.648;23.384;2023-02-20T08:55:51;95161.13;;;22.79;19.88
56052;BME280;41919;42.648;23.384;2023-02-20T08:58:19;95177.63;;;21.87;20.70
56052;BME280;41919;42.648;23.384;2023-02-20T09:00:44;95153.88;;;21.65;21.08
56052;BME280;41919;42.648;23.384;2023-02-20T09:03:10;95172.00;;;20.66;22.16
56052;BME280;41919;42.648;23.384;2023-02-20T09:05:35;95164.63;;;20.46;22.54
56052;BME280;41919;42.648;23.384;2023-02-20T09:08:02;95087.28;;;19.83;23.00
56052;BME280;41919;42.648;23.384;2023-02-20T09:10:27;95089.19;;;19.66;22.87
56052;BME280;41919;42.648;23.384;2023-02-20T09:12:53;95090.53;;;19.07;23.49
56052;BME280;41919;42.648;23.384;2023-02-20T09:15:18;95103.16;;;18.49;24.21
56052;BME280;41919;42.648;23.384;2023-02-20T09:17:47;95140.69;;;18.17;24.78
56052;BME280;41919;42.648;23.384;2023-02-20T09:20:14;95152.66;;;17.68;25.72
56052;BME280;41919;42.648;23.384;2023-02-20T09:22:40;95092.13;;;17.54;25.55
56052;BME280;41919;42.648;23.384;2023-02-20T09:25:06;95159.41;;;17.87;26.13
56052;BME280;41919;42.648;23.384;2023-02-20T09:27:32;95096.94;;;17.05;26.43
56052;BME280;41919;42.648;23.384;2023-02-20T09:29:59;95149.25;;;17.08;26.80
56052;BME280;41919;42.648;23.384;2023-02-20T09:32:24;95156.03;;;17.16;26.70
56052;BME280;41919;42.648;23.384;2023-02-20T09:34:49;95092.03;;;16.55;26.86
56052;BME280;41919;42.648;23.384;2023-02-20T09:37:15;95159.19;;;16.71;27.33
56052;BME280;41919;42.648;23.384;2023-02-20T09:39:40;95145.81;;;16.42;27.99
56052;BME280;41919;42.648;23.384;2023-02-20T09:49:46;95151.22;;;15.31;30.10
56052;BME280;41919;42.648;23.384;2023-02-20T09:52:13;95127.38;;;14.82;30.43
56052;BME280;41919;42.648;23.384;2023-02-20T09:54:48;95176.53;;;15.07;31.04
56052;BME280;41919;42.648;23.384;2023-02-20T09:57:19;95125.28;;;14.66;31.16
56052;BME280;41919;42.648;23.384;2023-02-20T09:59:50;95111.13;;;14.67;30.91
56052;BME280;41919;42.648;23.384;2023-02-20T10:02:23;95111.38;;;14.59;30.92
56052;BME280;41919;42.648;23.384;2023-02-20T10:04:53;95143.09;;;14.89;30.76
56052;BME280;41919;42.648;23.384;2023-02-20T10:07:24;95113.69;;;14.74;30.30
56052;BME280;41919;42.648;23.384;2023-02-20T10:09:51;95163.84;;;15.22;30.52
56052;BME280;41919;42.648;23.384;2023-02-20T10:12:23;95160.00;;;15.25;30.13
56052;BME280;41919;42.648;23.384;2023-02-20T10:17:46;95163.56;;;15.49;29.99
56052;BME280;41919;42.648;23.384;2023-02-20T10:22:52;95171.84;;;15.34;29.86
56052;BME280;41919;42.648;23.384;2023-02-20T10:25:27;95160.66;;;15.39;28.60
56052;BME280;41919;42.648;23.384;2023-02-20T10:28:10;95090.28;;;14.65;28.45
56052;BME280;41919;42.648;23.384;2023-02-20T10:31:32;95146.81;;;14.81;29.17
56052;BME280;41919;42.648;23.384;2023-02-20T10:33:32;95151.00;;;14.64;29.86
56052;BME280;41919;42.648;23.384;2023-02-20T10:36:19;95138.09;;;14.56;29.39
56052;BME280;41919;42.648;23.384;2023-02-20T10:39:07;95152.31;;;14.48;29.06
56052;BME280;41919;42.648;23.384;2023-02-20T10:44:26;95084.09;;;13.96;29.74
56052;BME280;41919;42.648;23.384;2023-02-20T10:49:59;95080.78;;;13.69;29.69
56052;BME280;41919;42.648;23.384;2023-02-20T10:52:33;95120.81;;;13.64;30.12
56052;BME280;41919;42.648;23.384;2023-02-20T10:55:17;95033.31;;;13.25;30.42
56052;BME280;41919;42.648;23.384;2023-02-20T10:58:00;95130.00;;;13.87;30.72
56052;BME280;41919;42.648;23.384;2023-02-20T11:00:37;95048.38;;;13.43;30.50
56052;BME280;41919;42.648;23.384;2023-02-20T11:03:08;95107.94;;;14.26;30.83
56052;BME280;41919;42.648;23.384;2023-02-20T11:05:42;95120.63;;;14.04;29.98
56052;BME280;41919;42.648;23.384;2023-02-20T11:08:09;95051.41;;;13.40;29.75
56052;BME280;41919;42.648;23.384;2023-02-20T11:10:34;95122.78;;;13.76;29.76
56052;BME280;41919;42.648;23.384;2023-02-20T11:13:03;95123.78;;;13.75;30.50
56052;BME280;41919;42.648;23.384;2023-02-20T11:15:31;95125.66;;;13.67;30.42
56052;BME280;41919;42.648;23.384;2023-02-20T11:17:59;95067.22;;;13.33;29.49
56052;BME280;41919;42.648;23.384;2023-02-20T11:20:43;95058.75;;;13.31;30.05
56052;BME280;41919;42.648;23.384;2023-02-20T11:31:34;95137.97;;;13.67;31.20
56052;BME280;41919;42.648;23.384;2023-02-20T11:34:01;95071.22;;;13.43;30.87
56052;BME280;41919;42.648;23.384;2023-02-20T11:36:27;95091.22;;;13.37;30.75
56052;BME280;41919;42.648;23.384;2023-02-20T11:38:58;95077.31;;;13.37;31.19
56052;BME280;41919;42.648;23.384;2023-02-20T11:41:31;95135.28;;;13.87;30.78
56052;BME280;41919;42.648;23.384;2023-02-20T11:46:39;95067.94;;;13.54;32.08
56052;BME280;41919;42.648;23.384;2023-02-20T11:49:08;95132.44;;;13.88;31.47
56052;BME280;41919;42.648;23.384;2023-02-20T11:51:45;95084.69;;;13.53;31.52
56052;BME280;41919;42.648;23.384;2023-02-20T11:54:29;95056.66;;;13.40;31.74
56052;BME280;41919;42.648;23.384;2023-02-20T11:59:38;95122.19;;;13.73;32.20
56052;BME280;41919;42.648;23.384;2023-02-20T12:04:36;95095.34;;;13.65;32.15
56052;BME280;41919;42.648;23.384;2023-02-20T12:07:17;95039.34;;;13.26;31.98
56052;BME280;41919;42.648;23.384;2023-02-20T12:09:45;95011.81;;;12.90;32.29
56052;BME280;41919;42.648;23.384;2023-02-20T12:12:12;95034.91;;;13.26;32.56
56052;BME280;41919;42.648;23.384;2023-02-20T12:14:38;95107.50;;;13.59;32.32
56052;BME280;41919;42.648;23.384;2023-02-20T12:22:44;95052.13;;;13.09;31.99
56052;BME280;41919;42.648;23.384;2023-02-20T12:25:17;95117.63;;;13.49;31.70
56052;BME280;41919;42.648;23.384;2023-02-20T12:31:46;95089.53;;;13.56;32.04
56052;BME280;41919;42.648;23.384;2023-02-20T12:36:39;95093.59;;;13.52;31.94
56052;BME280;41919;42.648;23.384;2023-02-20T12:39:06;95116.94;;;13.73;31.77
56052;BME280;41919;42.648;23.384;2023-02-20T12:44:22;95101.31;;;13.40;32.04
56052;BME280;41919;42.648;23.384;2023-02-20T13:00:14;95062.50;;;12.70;33.44
56052;BME280;41919;42.648;23.384;2023-02-20T13:02:49;95110.47;;;12.98;33.45
56052;BME280;41919;42.648;23.384;2023-02-20T13:05:22;95093.94;;;12.97;33.61
56052;BME280;41919;42.648;23.384;2023-02-20T13:08:04;95079.00;;;12.98;32.99
56052;BME280;41919;42.648;23.384;2023-02-20T13:10:34;95119.69;;;13.40;32.69
56052;BME280;41919;42.648;23.384;2023-02-20T13:13:03;95106.56;;;13.40;32.24
56052;BME280;41919;42.648;23.384;2023-02-20T13:15:46;95094.47;;;13.26;32.35
56052;BME280;41919;42.648;23.384;2023-02-20T13:18:38;95101.84;;;13.56;32.17
56052;BME280;41919;42.648;23.384;2023-02-20T13:21:28;95106.22;;;13.75;32.16
56052;BME280;41919;42.648;23.384;2023-02-20T13:26:49;95114.31;;;13.67;32.07
56052;BME280;41919;42.648;23.384;2023-02-20T13:29:18;95050.53;;;13.08;32.23
56052;BME280;41919;42.648;23.384;2023-02-20T13:31:47;95127.69;;;13.59;32.25
56052;BME280;41919;42.648;23.384;2023-02-20T13:36:45;95124.47;;;13.57;32.31
56052;BME280;41919;42.648;23.384;2023-02-20T13:49:56;95051.59;;;12.87;32.89
56052;BME280;41919;42.648;23.384;2023-02-20T13:57:20;95148.34;;;13.42;33.65
56052;BME280;41919;42.648;23.384;2023-02-20T13:59:51;95132.63;;;13.28;33.18
56052;BME280;41919;42.648;23.384;2023-02-20T14:02:21;95072.97;;;12.84;33.88
56052;BME280;41919;42.648;23.384;2023-02-20T14:04:59;95095.13;;;13.01;33.46
56052;BME280;41919;42.648;23.384;2023-02-20T14:12:58;95137.63;;;13.50;33.55
56052;BME280;41919;42.648;23.384;2023-02-20T14:15:25;95100.75;;;13.31;33.34
56052;BME280;41919;42.648;23.384;2023-02-20T14:17:52;95118.09;;;13.19;34.23
56052;BME280;41919;42.648;23.384;2023-02-20T14:20:44;95140.13;;;13.31;34.53
56052;BME280;41919;42.648;23.384;2023-02-20T14:25:52;95083.84;;;12.94;34.42
56052;BME280;41919;42.648;23.384;2023-02-20T14:28:17;95077.78;;;13.00;33.90
56052;BME280;41919;42.648;23.384;2023-02-20T14:30:43;95153.63;;;13.35;34.67
56052;BME280;41919;42.648;23.384;2023-02-20T14:33:18;95158.06;;;13.28;34.52
56052;BME280;41919;42.648;23.384;2023-02-20T14:36:04;95158.47;;;13.25;34.58
56052;BME280;41919;42.648;23.384;2023-02-20T14:41:22;95146.63;;;12.75;35.08
56052;BME280;41919;42.648;23.384;2023-02-20T14:44:00;95081.50;;;12.26;35.65
56052;BME280;41919;42.648;23.384;2023-02-20T14:46:28;95092.56;;;12.28;35.85
56052;BME280;41919;42.648;23.384;2023-02-20T14:49:15;95163.53;;;12.46;36.46
56052;BME280;41919;42.648;23.384;2023-02-20T14:51:41;95153.25;;;12.25;36.84
56052;BME280;41919;42.648;23.384;2023-02-20T14:56:38;95181.88;;;12.26;36.99
56052;BME280;41919;42.648;23.384;2023-02-20T15:01:58;95176.94;;;11.96;37.53
56052;BME280;41919;42.648;23.384;2023-02-20T15:04:26;95169.84;;;11.84;37.92
56052;BME280;41919;42.648;23.384;2023-02-20T15:06:59;95100.34;;;11.33;38.55
56052;BME280;41919;42.648;23.384;2023-02-20T15:09:35;95174.41;;;11.68;38.52
56052;BME280;41919;42.648;23.384;2023-02-20T15:12:01;95180.44;;;11.62;38.60
56052;BME280;41919;42.648;23.384;2023-02-20T15:14:31;95159.38;;;11.42;38.76